Time;durP1;ratioP1;P1;durP2;ratioP2;P2;SDS_P1;SDS_P2;PMS_P1;PMS_P2;Temp;Humidity;BMP_temperature;BMP_pressure;BME280_temperature;BME280_humidity;BME280_pressure;Samples;Min_cycle;Max_cycle;Signal;HPM_P1;HPM_P2
2022/09/30 00:01:25;;;;;;;4.13;3.30;;;14.20;76.30;;;16.75;56.76;100614.63;4897506;29;20284;-59
2022/09/30 00:03:54;;;;;;;3.40;2.90;;;14.10;76.50;;;16.78;56.67;100612.34;4896313;29;20223;-59
2022/09/30 00:06:24;;;;;;;3.90;3.07;;;14.10;76.50;;;16.80;56.65;100618.28;4897654;29;20215;-58
2022/09/30 00:08:52;;;;;;;3.70;3.40;;;14.10;76.80;;;16.84;57.04;100605.34;4898189;29;20188;-58
2022/09/30 00:11:24;;;;;;;3.60;3.30;;;14.10;77.10;;;16.88;56.92;100609.19;4897390;29;20227;-58
2022/09/30 00:13:52;;;;;;;2.90;2.70;;;14.10;76.90;;;16.89;56.64;100608.97;4899920;29;20219;-59
2022/09/30 00:16:22;;;;;;;3.00;2.80;;;14.10;76.60;;;16.90;56.23;100613.25;4901634;29;20230;-58
2022/09/30 00:18:51;;;;;;;3.20;2.90;;;14.10;76.60;;;16.88;56.05;100619.81;4901670;29;20550;-59
2022/09/30 00:21:19;;;;;;;3.00;2.80;;;14.10;76.30;;;16.86;56.27;100627.19;4911901;29;20672;-57
2022/09/30 00:23:47;;;;;;;5.83;3.63;;;14.10;76.60;;;16.84;56.56;100631.91;4920380;29;20621;-58
2022/09/30 00:26:19;;;;;;;3.37;3.17;;;14.10;76.60;;;16.76;56.36;100622.38;4919863;29;20253;-56
2022/09/30 00:28:50;;;;;;;3.87;3.20;;;14.10;76.40;;;16.72;56.84;100623.03;4909578;29;20282;-58
2022/09/30 00:31:20;;;;;;;3.00;2.80;;;14.00;76.50;;;16.71;57.09;100624.06;4900909;29;20195;-58
2022/09/30 00:34:05;;;;;;;3.60;3.30;;;14.00;77.10;;;16.77;57.11;100617.88;4901913;29;20274;-58
2022/09/30 00:36:36;;;;;;;2.83;2.63;;;14.00;77.20;;;16.80;57.10;100628.09;4885366;29;20207;-58
2022/09/30 00:39:08;;;;;;;3.43;3.07;;;14.00;77.20;;;16.85;56.86;100625.59;4890284;29;20250;-59
2022/09/30 00:41:36;;;;;;;3.20;2.47;;;14.10;78.20;;;16.86;56.56;100624.53;4920233;29;20282;-59
2022/09/30 00:44:49;;;;;;;3.20;2.63;;;14.10;77.20;;;16.82;56.86;100626.00;4920800;29;20726;-59
2022/09/30 00:47:43;;;;;;;2.93;2.73;;;14.10;77.50;;;16.80;56.70;100636.88;4912231;29;20199;-58
2022/09/30 00:50:35;;;;;;;3.43;3.13;;;14.10;77.10;;;16.77;56.50;100628.50;4902153;29;20247;-58
2022/09/30 00:53:13;;;;;;;3.23;2.93;;;14.10;76.80;;;16.75;56.27;100625.25;4893892;29;20251;-57
2022/09/30 00:55:53;;;;;;;4.37;3.50;;;14.00;76.90;;;16.73;56.85;100633.47;4883012;29;20247;-58
2022/09/30 00:58:29;;;;;;;3.73;3.30;;;14.00;77.10;;;16.72;56.77;100626.50;4882493;29;20236;-59
2022/09/30 01:01:00;;;;;;;3.77;3.10;;;14.00;77.20;;;16.72;56.87;100631.00;4896496;29;20240;-60
2022/09/30 01:03:30;;;;;;;5.30;3.03;;;14.00;77.10;;;16.73;56.93;100627.31;4882526;29;20223;-57
2022/09/30 01:05:58;;;;;;;3.40;3.10;;;14.00;78.00;;;16.72;56.64;100633.66;4882464;29;20184;-57
2022/09/30 01:08:27;;;;;;;3.53;3.23;;;13.90;77.00;;;16.70;56.65;100633.06;4883416;29;20677;-57
2022/09/30 01:10:56;;;;;;;3.83;3.53;;;13.90;77.10;;;16.71;56.99;100632.03;4881747;29;20263;-56
2022/09/30 01:13:27;;;;;;;4.20;3.77;;;13.90;77.20;;;16.68;56.58;100629.81;4882115;29;20212;-58
2022/09/30 01:16:30;;;;;;;3.93;3.63;;;13.90;77.10;;;16.58;56.58;100630.31;4882579;29;20180;-58
2022/09/30 01:19:38;;;;;;;4.17;3.33;;;13.90;77.10;;;16.49;56.57;100620.94;4881389;29;20204;-59
2022/09/30 01:22:24;;;;;;;3.63;3.33;;;13.80;77.70;;;16.45;56.77;100629.56;4889574;29;20602;-59
2022/09/30 01:25:45;;;;;;;3.77;3.47;;;13.80;77.30;;;16.42;56.92;100630.81;4884852;29;20558;-59
2022/09/30 01:29:04;;;;;;;3.50;3.20;;;13.70;77.40;;;16.37;56.80;100637.78;4887574;29;20211;-58
2022/09/30 01:31:52;;;;;;;3.23;3.03;;;13.70;77.30;;;16.35;57.03;100626.56;4899485;29;20649;-59
2022/09/30 01:34:37;;;;;;;4.57;4.10;;;13.60;77.20;;;16.35;56.78;100639.84;4900252;29;20196;-58
2022/09/30 01:37:19;;;;;;;5.00;3.20;;;13.70;77.50;;;16.33;56.77;100628.63;4900527;29;20184;-59
2022/09/30 01:40:01;;;;;;;4.83;3.47;;;13.60;77.30;;;16.32;56.97;100640.25;4903186;29;20274;-59
2022/09/30 01:42:44;;;;;;;4.20;3.90;;;13.60;77.50;;;16.29;56.77;100625.56;4899761;29;20310;-59
2022/09/30 01:45:19;;;;;;;4.23;3.40;;;13.60;77.70;;;16.25;57.24;100627.03;4900193;29;20214;-59
2022/09/30 01:47:56;;;;;;;3.50;3.20;;;13.50;77.80;;;16.24;57.24;100623.56;4899897;29;20609;-59
2022/09/30 01:50:35;;;;;;;4.87;4.47;;;13.50;78.00;;;16.24;57.46;100623.56;4900051;29;20180;-59
2022/09/30 01:53:14;;;;;;;4.10;3.73;;;13.50;78.30;;;16.26;57.78;100628.63;4900089;29;20223;-59
2022/09/30 01:55:49;;;;;;;4.70;4.30;;;13.50;78.20;;;16.24;57.15;100628.88;4897302;29;20211;-59
2022/09/30 01:58:33;;;;;;;4.23;3.93;;;13.50;77.90;;;16.22;57.03;100636.22;4881091;29;20255;-59
2022/09/30 02:01:08;;;;;;;3.57;3.27;;;13.50;77.70;;;16.23;57.16;100643.19;4881004;29;20235;-59
2022/09/30 02:03:46;;;;;;;4.97;4.47;;;13.50;77.80;;;16.22;57.43;100641.53;4880958;29;20705;-59
2022/09/30 02:06:21;;;;;;;4.33;4.00;;;13.50;77.80;;;16.17;57.24;100645.84;4881216;29;20196;-59
2022/09/30 02:08:57;;;;;;;3.80;3.50;;;13.50;77.80;;;16.13;57.93;100642.84;4881121;29;20195;-59
2022/09/30 02:11:28;;;;;;;3.90;3.60;;;13.50;78.20;;;16.18;57.95;100640.34;4880656;29;20196;-56
2022/09/30 02:14:03;;;;;;;4.60;4.20;;;13.40;78.30;;;16.16;57.67;100639.72;4910748;29;20298;-59
2022/09/30 02:16:38;;;;;;;4.97;4.27;;;13.50;78.10;;;16.13;57.60;100632.22;4913206;29;20191;-58
2022/09/30 02:19:17;;;;;;;4.37;3.97;;;13.50;77.90;;;16.12;57.33;100635.06;4899808;29;20194;-56
2022/09/30 02:21:55;;;;;;;3.97;3.47;;;13.50;78.00;;;16.15;57.47;100634.63;4899234;29;20199;-58
2022/09/30 02:24:26;;;;;;;5.20;4.80;;;13.40;77.80;;;16.01;57.90;100639.22;4899375;29;20266;-57
2022/09/30 02:27:00;;;;;;;9.43;4.83;;;13.40;77.70;;;15.80;58.46;100658.09;4899404;29;20203;-58
2022/09/30 02:29:35;;;;;;;4.93;4.53;;;13.30;77.90;;;15.62;58.76;100657.94;4913369;29;20207;-58
2022/09/30 02:32:12;;;;;;;4.97;4.57;;;13.20;78.00;;;15.45;59.13;100662.91;4879716;29;20642;-59
2022/09/30 02:34:47;;;;;;;5.40;5.00;;;13.10;78.60;;;15.29;59.68;100665.97;4880006;29;20275;-58
2022/09/30 02:37:20;;;;;;;6.17;5.57;;;13.00;79.10;;;15.17;60.19;100654.34;4880761;29;20204;-57
2022/09/30 02:39:56;;;;;;;6.27;5.67;;;12.90;79.60;;;15.08;60.43;100654.78;4898906;29;20604;-58
2022/09/30 02:42:27;;;;;;;6.03;5.53;;;12.80;79.90;;;15.00;61.02;100670.91;4918064;29;20217;-59
2022/09/30 02:45:00;;;;;;;5.23;4.73;;;12.70;80.40;;;15.01;60.62;100677.81;4906879;29;20246;-59
2022/09/30 02:47:40;;;;;;;8.07;6.23;;;12.60;80.60;;;15.04;60.72;100672.94;4899103;29;20207;-58
2022/09/30 02:50:19;;;;;;;6.57;5.97;;;12.50;81.60;;;14.98;61.08;100673.75;4899191;29;20190;-59
2022/09/30 02:53:09;;;;;;;5.13;4.77;;;12.50;81.30;;;14.93;61.28;100674.34;4899205;29;20294;-59
2022/09/30 02:55:56;;;;;;;6.43;5.83;;;12.50;81.20;;;14.88;61.50;100679.44;4899175;29;20235;-58
2022/09/30 02:58:25;;;;;;;6.23;5.63;;;12.40;81.50;;;14.87;61.47;100677.84;4898850;29;20653;-60
2022/09/30 03:00:53;;;;;;;6.40;5.80;;;12.40;81.70;;;14.85;61.42;100679.06;4888289;29;20215;-59
2022/09/30 03:03:26;;;;;;;6.63;6.03;;;12.40;81.90;;;14.82;61.46;100674.16;4897181;29;20582;-57
2022/09/30 03:05:55;;;;;;;6.33;5.73;;;12.30;81.70;;;14.82;61.53;100684.75;4899028;29;20543;-58
2022/09/30 03:08:23;;;;;;;6.43;5.93;;;12.30;81.90;;;14.79;61.59;100677.22;4898410;29;20198;-58
2022/09/30 03:10:51;;;;;;;7.00;6.40;;;12.20;82.10;;;14.73;61.80;100670.09;4915055;29;20206;-56
2022/09/30 03:14:13;;;;;;;6.47;5.80;;;12.20;82.20;;;14.67;61.81;100681.47;4917410;29;20207;-57
2022/09/30 03:17:13;;;;;;;6.70;6.10;;;12.20;82.20;;;14.63;61.80;100675.78;4876238;29;20203;-58
2022/09/30 03:20:13;;;;;;;6.33;5.90;;;12.20;82.20;;;14.61;62.07;100669.88;4898483;29;20204;-57
2022/09/30 03:23:18;;;;;;;6.77;6.27;;;12.10;82.40;;;14.57;62.03;100676.56;4898196;29;20674;-58
2022/09/30 03:25:59;;;;;;;7.13;6.53;;;12.10;82.60;;;14.47;62.68;100673.53;4890209;29;20263;-56
2022/09/30 03:28:34;;;;;;;6.10;5.70;;;12.10;82.90;;;14.39;62.80;100673.69;4898364;29;20271;-57
2022/09/30 03:31:13;;;;;;;6.67;6.10;;;12.00;82.90;;;14.35;62.84;100683.06;4897582;29;20183;-56
2022/09/30 03:33:51;;;;;;;6.47;5.93;;;12.00;82.90;;;14.41;62.59;100686.72;4897734;29;20263;-57
2022/09/30 03:36:31;;;;;;;5.90;5.33;;;12.00;82.80;;;14.50;62.52;100691.63;4898254;29;20187;-57
2022/09/30 03:39:12;;;;;;;6.73;6.13;;;12.00;83.50;;;14.56;62.19;100690.84;4900873;29;20559;-58
2022/09/30 03:41:48;;;;;;;6.90;6.33;;;12.00;83.50;;;14.53;62.19;100690.41;4918138;29;20186;-59
2022/09/30 03:44:24;;;;;;;7.07;6.37;;;12.00;83.10;;;14.48;62.47;100693.69;4919312;29;20222;-56
2022/09/30 03:46:57;;;;;;;7.33;6.73;;;12.00;82.90;;;14.44;62.55;100696.94;4913585;29;20778;-56
2022/09/30 03:49:31;;;;;;;6.93;6.33;;;12.00;83.10;;;14.42;62.55;100691.84;4897836;29;20211;-59
2022/09/30 03:52:05;;;;;;;6.90;6.30;;;11.90;83.60;;;14.39;62.47;100689.59;4898099;29;20230;-59
2022/09/30 03:54:37;;;;;;;11.00;6.33;;;11.90;82.70;;;14.40;62.52;100696.53;4897939;29;20199;-59
2022/09/30 03:57:06;;;;;;;7.57;6.87;;;11.90;83.10;;;14.39;62.45;100700.19;4898159;29;20537;-58
2022/09/30 03:59:34;;;;;;;7.03;6.43;;;11.90;83.20;;;14.34;62.89;100705.25;4897749;29;20195;-58
2022/09/30 04:02:02;;;;;;;7.20;6.60;;;11.80;83.20;;;14.31;62.75;100713.59;4897535;29;20215;-59
2022/09/30 04:04:29;;;;;;;6.97;6.37;;;11.80;83.20;;;14.33;62.54;100710.75;4898159;29;20230;-57
2022/09/30 04:06:56;;;;;;;9.60;7.73;;;11.80;83.30;;;14.33;63.05;100710.75;4913080;29;20206;-59
2022/09/30 04:09:26;;;;;;;7.80;6.93;;;11.80;83.70;;;14.30;62.63;100714.63;4901369;29;20187;-59
2022/09/30 04:11:54;;;;;;;7.57;6.97;;;11.80;83.60;;;14.29;62.72;100726.19;4903521;29;20277;-61
2022/09/30 04:14:22;;;;;;;8.37;7.57;;;11.80;83.60;;;14.29;62.84;100728.84;4901829;29;20200;-58
2022/09/30 04:16:49;;;;;;;8.23;7.43;;;11.70;83.70;;;14.29;62.92;100726.19;4904178;29;20203;-60
2022/09/30 04:19:20;;;;;;;8.10;6.20;;;11.70;83.90;;;14.28;62.94;100729.88;4906601;29;20195;-59
2022/09/30 04:21:51;;;;;;;8.27;7.47;;;11.80;83.80;;;14.30;62.83;100730.50;4905063;29;20201;-59
2022/09/30 04:24:19;;;;;;;8.03;7.33;;;11.70;84.00;;;14.31;62.92;100734.78;4911059;29;20203;-59
2022/09/30 04:26:47;;;;;;;7.90;7.20;;;11.80;84.00;;;14.34;62.70;100730.91;4912900;29;20203;-58
2022/09/30 04:29:16;;;;;;;8.43;7.63;;;11.80;84.60;;;14.31;62.83;100729.47;4908881;29;20196;-57
2022/09/30 04:31:43;;;;;;;8.07;7.30;;;11.70;83.70;;;14.30;62.80;100743.75;4906682;29;20203;-57
2022/09/30 04:34:11;;;;;;;8.83;7.97;;;11.80;83.60;;;14.28;62.90;100737.81;4897202;29;20214;-57
2022/09/30 04:36:38;;;;;;;7.87;7.27;;;11.70;83.70;;;14.27;62.75;100738.81;4897464;29;20203;-59
2022/09/30 04:39:06;;;;;;;9.20;8.30;;;11.70;83.60;;;14.23;62.97;100746.34;4900484;29;20218;-58
2022/09/30 04:41:33;;;;;;;8.43;7.73;;;11.70;83.60;;;14.18;63.07;100746.13;4916157;29;20195;-57
2022/09/30 04:44:05;;;;;;;10.53;8.53;;;11.70;83.70;;;14.12;63.16;100740.81;4916396;29;20755;-59
2022/09/30 04:46:35;;;;;;;8.50;7.83;;;11.70;83.70;;;14.13;62.92;100758.31;4912758;29;20230;-59
2022/09/30 04:49:04;;;;;;;8.37;7.43;;;11.70;83.60;;;14.17;62.89;100764.81;4896881;29;20297;-59
2022/09/30 04:51:37;;;;;;;7.50;6.80;;;11.70;83.60;;;14.23;62.82;100766.72;4897260;29;20561;-58
2022/09/30 04:54:05;;;;;;;7.17;6.37;;;11.60;83.70;;;14.33;62.44;100769.00;4896473;29;20192;-59
2022/09/30 04:56:32;;;;;;;6.63;6.03;;;11.70;84.00;;;14.40;62.44;100770.69;4878159;29;20264;-59
2022/09/30 04:58:59;;;;;;;8.67;7.77;;;11.70;84.20;;;14.50;62.41;100772.94;4879996;29;20530;-57
2022/09/30 05:01:26;;;;;;;7.97;7.27;;;11.80;84.40;;;14.55;62.23;100768.66;4885303;29;20192;-59
2022/09/30 05:03:55;;;;;;;8.80;7.97;;;11.80;84.00;;;14.58;61.79;100770.94;4919427;29;20222;-59
2022/09/30 05:06:22;;;;;;;8.87;7.97;;;11.80;83.50;;;14.59;61.58;100769.94;4917737;29;20206;-56
2022/09/30 05:08:50;;;;;;;8.17;7.37;;;11.90;83.20;;;14.57;61.50;100782.53;4919492;29;20195;-59
2022/09/30 05:11:20;;;;;;;7.63;6.93;;;11.90;82.90;;;14.56;61.42;100775.63;4911099;29;20203;-59
2022/09/30 05:13:49;;;;;;;6.70;6.17;;;11.90;82.80;;;14.64;61.78;100786.00;4901083;29;20219;-59
2022/09/30 05:16:18;;;;;;;7.53;6.93;;;12.00;83.30;;;14.66;61.54;100776.06;4900334;29;20776;-59
2022/09/30 05:18:45;;;;;;;7.30;6.60;;;12.00;82.90;;;14.71;61.62;100784.19;4900684;29;20608;-56
2022/09/30 05:21:19;;;;;;;7.70;6.97;;;12.00;83.20;;;14.79;61.94;100776.06;4899616;29;20271;-59
2022/09/30 05:23:52;;;;;;;8.00;7.20;;;12.00;83.60;;;14.88;61.70;100776.72;4900183;29;20762;-59
2022/09/30 05:26:19;;;;;;;7.37;6.77;;;12.20;83.60;;;15.01;61.61;100784.69;4900226;29;20544;-59
2022/09/30 05:28:47;;;;;;;7.90;7.20;;;12.20;84.20;;;15.12;61.16;100791.22;4900456;29;20195;-58
2022/09/30 05:31:14;;;;;;;7.87;7.17;;;12.30;83.00;;;15.19;60.93;100794.69;4899078;29;20689;-59
2022/09/30 05:33:41;;;;;;;7.17;6.57;;;12.30;82.40;;;15.23;60.36;100795.91;4900131;29;20227;-59
2022/09/30 05:36:14;;;;;;;8.93;8.03;;;12.40;82.30;;;15.28;60.65;100793.47;4914866;29;20579;-60
2022/09/30 05:38:42;;;;;;;8.03;7.20;;;12.40;82.10;;;15.35;60.40;100799.59;4900342;29;20190;-58
2022/09/30 05:41:12;;;;;;;8.97;7.23;;;12.50;82.00;;;15.41;59.93;100796.13;4918270;29;20194;-58
2022/09/30 05:43:40;;;;;;;7.57;6.80;;;12.50;81.70;;;15.45;60.09;100797.38;4912740;29;20216;-57
2022/09/30 05:46:08;;;;;;;10.23;9.33;;;12.60;81.70;;;15.52;59.68;100803.50;4899746;29;20219;-61
2022/09/30 05:48:35;;;;;;;8.63;7.73;;;12.70;81.50;;;15.50;59.10;100794.91;4881534;29;20204;-60
2022/09/30 05:51:03;;;;;;;8.93;8.03;;;12.70;80.30;;;15.41;58.58;100801.41;4880803;29;20200;-59
2022/09/30 05:53:37;;;;;;;8.83;7.93;;;12.70;79.50;;;15.31;58.62;100795.69;4881158;29;20212;-60
2022/09/30 05:56:06;;;;;;;8.80;8.00;;;12.70;79.40;;;15.20;58.87;100806.91;4881258;29;20188;-59
2022/09/30 05:58:34;;;;;;;9.60;8.70;;;12.60;79.20;;;15.08;58.93;100800.59;4898055;29;20715;-58
2022/09/30 06:01:08;;;;;;;10.07;9.17;;;12.50;79.20;;;14.95;59.51;100800.56;4905392;29;20203;-62
2022/09/30 06:03:40;;;;;;;10.37;9.30;;;12.40;79.40;;;14.82;59.35;100811.97;4899599;29;20722;-60
2022/09/30 06:06:08;;;;;;;9.43;8.53;;;12.30;79.50;;;14.69;59.48;100810.06;4899677;29;20287;-59
2022/09/30 06:08:37;;;;;;;10.27;9.37;;;12.20;79.60;;;14.58;60.21;100813.31;4899970;29;20207;-58
2022/09/30 06:11:10;;;;;;;11.80;8.87;;;12.10;80.00;;;14.50;60.49;100816.13;4898201;29;20202;-59
2022/09/30 06:13:40;;;;;;;11.80;9.90;;;12.10;80.20;;;14.46;60.63;100814.91;4899304;29;20295;-59
2022/09/30 06:16:11;;;;;;;10.63;8.97;;;12.00;80.60;;;14.38;60.58;100814.25;4898947;29;20195;-59
2022/09/30 06:18:40;;;;;;;9.83;8.83;;;11.90;80.70;;;14.29;61.18;100816.19;4899234;29;20204;-58
2022/09/30 06:21:11;;;;;;;11.50;9.10;;;11.80;81.00;;;14.29;60.88;100815.41;4899676;29;20611;-58
2022/09/30 06:23:40;;;;;;;9.90;9.10;;;11.80;81.20;;;14.28;60.91;100825.19;4899207;29;20680;-58
2022/09/30 06:26:13;;;;;;;11.10;10.00;;;11.70;81.30;;;14.27;61.21;100828.81;4899661;29;20279;-59
2022/09/30 06:28:41;;;;;;;10.33;9.43;;;11.70;81.80;;;14.30;61.36;100833.78;4922412;29;20569;-57
2022/09/30 06:31:10;;;;;;;10.93;9.20;;;11.70;81.90;;;14.31;61.27;100834.59;4897940;29;20207;-58
2022/09/30 06:33:37;;;;;;;9.80;8.90;;;11.70;82.10;;;14.35;61.42;100823.41;4898378;29;20253;-59
2022/09/30 06:36:06;;;;;;;10.67;9.67;;;11.70;82.10;;;14.43;61.37;100831.16;4899298;29;20202;-59
2022/09/30 06:38:38;;;;;;;10.17;9.27;;;11.70;82.50;;;14.51;61.30;100825.72;4899303;29;20203;-58
2022/09/30 06:41:08;;;;;;;10.53;9.50;;;11.70;82.90;;;14.77;61.45;100843.53;4891152;29;20298;-58
2022/09/30 06:43:36;;;;;;;10.30;9.30;;;11.80;83.60;;;15.12;61.14;100849.56;4903599;29;20217;-56
2022/09/30 06:46:23;;;;;;;10.27;9.30;;;12.10;84.10;;;15.56;60.41;100841.88;4898686;29;20214;-59
2022/09/30 06:48:58;;;;;;;9.03;8.13;;;12.40;83.40;;;16.10;60.03;100845.06;4899205;29;20258;-60
2022/09/30 06:51:40;;;;;;;9.93;9.03;;;12.80;83.50;;;16.68;57.33;100847.78;4900492;29;20270;-59
2022/09/30 06:54:09;;;;;;;9.17;8.30;;;13.30;80.10;;;17.10;56.03;100841.81;4903039;29;20199;-59
2022/09/30 06:56:38;;;;;;;9.40;8.50;;;13.70;77.70;;;17.35;54.39;100837.31;4917405;29;20597;-60
2022/09/30 06:59:05;;;;;;;9.03;8.00;;;14.10;75.80;;;17.36;53.74;100841.63;4918799;29;20250;-60
2022/09/30 07:01:33;;;;;;;9.30;8.40;;;14.30;74.10;;;17.19;53.41;100840.50;4912679;29;20266;-60
2022/09/30 07:04:06;;;;;;;10.03;9.13;;;14.40;73.80;;;16.92;53.62;100844.38;4899972;29;20223;-59
2022/09/30 07:06:34;;;;;;;10.07;9.13;;;14.30;72.40;;;16.50;54.50;100837.78;4899061;29;20218;-58
2022/09/30 07:09:01;;;;;;;10.13;9.17;;;14.10;72.70;;;16.19;55.72;100848.31;4898544;29;20258;-60
2022/09/30 07:11:29;;;;;;;10.10;9.20;;;13.90;73.40;;;15.99;56.20;100840.41;4899596;29;20724;-58
2022/09/30 07:13:57;;;;;;;10.33;9.33;;;13.70;74.20;;;15.90;56.52;100844.28;4898550;29;20223;-60
2022/09/30 07:16:25;;;;;;;9.57;8.77;;;13.60;75.00;;;15.88;56.46;100848.97;4898696;29;20733;-60
2022/09/30 07:18:53;;;;;;;10.17;9.17;;;13.40;75.60;;;15.90;56.84;100852.22;4898637;29;20216;-59
2022/09/30 07:21:20;;;;;;;9.73;8.83;;;13.30;76.20;;;15.94;56.77;100853.47;4896886;29;20561;-59
2022/09/30 07:23:48;;;;;;;9.97;9.07;;;13.30;76.50;;;15.94;56.96;100856.13;4898236;29;20634;-61
2022/09/30 07:26:18;;;;;;;8.37;7.57;;;13.30;77.00;;;16.02;57.08;100861.19;4899175;29;20223;-58
2022/09/30 07:28:47;;;;;;;9.63;8.73;;;13.30;77.40;;;16.14;56.92;100856.91;4898329;29;20198;-58
2022/09/30 07:31:19;;;;;;;9.37;8.47;;;13.30;77.50;;;16.20;56.62;100856.09;4897511;29;20255;-59
2022/09/30 07:34:00;;;;;;;8.77;7.97;;;13.30;77.50;;;16.28;56.54;100858.50;4898291;29;20219;-60
2022/09/30 07:36:29;;;;;;;9.40;8.60;;;13.40;77.50;;;16.36;56.32;100864.59;4900735;29;20202;-60
2022/09/30 07:39:04;;;;;;;11.37;10.27;;;13.40;77.30;;;16.42;56.40;100863.78;4913487;29;20282;-60
2022/09/30 07:41:34;;;;;;;8.50;7.80;;;13.50;77.40;;;16.49;56.09;100861.91;4898089;29;20694;-59
2022/09/30 07:44:04;;;;;;;10.07;9.17;;;13.50;77.50;;;16.57;56.27;100864.38;4897520;29;20243;-60
2022/09/30 07:46:37;;;;;;;11.20;10.13;;;13.60;77.40;;;16.57;56.02;100867.03;4912807;29;20688;-59
2022/09/30 07:49:11;;;;;;;9.27;8.40;;;13.70;77.20;;;16.65;56.12;100875.59;4898354;29;20191;-59
2022/09/30 07:51:44;;;;;;;10.70;9.60;;;13.80;77.20;;;16.82;55.86;100867.94;4911274;29;20238;-59
2022/09/30 07:54:15;;;;;;;12.00;9.67;;;13.80;77.10;;;16.88;55.55;100875.88;4917114;29;20198;-59
2022/09/30 07:56:43;;;;;;;9.87;8.97;;;13.90;76.70;;;16.93;55.89;100872.59;4917451;29;20179;-58
2022/09/30 07:59:34;;;;;;;8.87;7.93;;;14.00;76.60;;;17.05;55.83;100880.69;4909718;29;20283;-60
2022/09/30 08:02:04;;;;;;;10.37;7.97;;;14.10;76.80;;;17.16;55.41;100875.53;4898321;29;20279;-60
2022/09/30 08:04:33;;;;;;;8.63;7.83;;;14.20;76.50;;;17.25;55.47;100874.25;4912308;29;20199;-59
2022/09/30 08:07:02;;;;;;;11.07;9.47;;;14.30;76.40;;;17.24;54.85;100877.09;4898244;29;20230;-59
2022/09/30 08:09:30;;;;;;;11.00;9.87;;;14.40;75.60;;;17.29;55.06;100875.44;4897653;29;20251;-59
2022/09/30 08:12:03;;;;;;;10.73;9.73;;;14.50;75.60;;;17.37;54.67;100861.91;4898029;29;20199;-57
2022/09/30 08:14:31;;;;;;;10.40;9.43;;;14.50;75.40;;;17.44;54.69;100860.00;4896773;29;20209;-59
2022/09/30 08:16:59;;;;;;;10.07;9.17;;;14.60;75.20;;;17.62;54.24;100863.75;4897615;29;20309;-60
2022/09/30 08:19:29;;;;;;;10.00;9.03;;;14.70;74.90;;;17.83;54.03;100860.75;4911503;29;20199;-58
2022/09/30 08:21:57;;;;;;;10.07;9.17;;;14.80;74.90;;;18.10;53.05;100864.75;4896844;29;20658;-59
2022/09/30 08:24:26;;;;;;;9.17;8.27;;;14.90;74.20;;;18.59;52.91;100867.31;4897666;29;20206;-58
2022/09/30 08:26:54;;;;;;;8.57;7.87;;;15.10;74.50;;;19.52;50.07;100870.34;4897780;29;20222;-57
2022/09/30 08:29:22;;;;;;;7.70;7.00;;;15.40;72.80;;;20.32;49.80;100870.63;4898191;29;20202;-59
2022/09/30 08:32:09;;;;;;;7.90;7.10;;;15.90;73.40;;;20.93;48.02;100881.50;4897092;29;20293;-60
2022/09/30 08:34:38;;;;;;;6.43;5.93;;;16.50;71.70;;;21.18;47.63;100882.00;4900279;29;20214;-58
2022/09/30 08:37:06;;;;;;;8.87;8.07;;;16.90;70.20;;;21.21;45.89;100880.72;4901467;29;20204;-61
2022/09/30 08:39:36;;;;;;;8.23;7.50;;;17.30;67.50;;;21.10;45.53;100877.06;4901319;29;20272;-60
2022/09/30 08:42:26;;;;;;;8.23;7.53;;;17.60;64.70;;;20.75;45.35;100887.06;4900013;29;20219;-60
2022/09/30 08:45:29;;;;;;;8.90;8.10;;;17.70;63.50;;;20.54;46.34;100890.38;4900939;29;20628;-59
2022/09/30 08:48:15;;;;;;;9.17;8.27;;;17.80;63.50;;;20.37;46.12;100889.47;4914462;29;20202;-59
2022/09/30 08:51:04;;;;;;;8.87;7.73;;;17.70;62.80;;;20.34;45.56;100890.75;4882508;29;20305;-59
2022/09/30 08:53:38;;;;;;;7.60;6.90;;;17.60;63.80;;;20.98;45.70;100889.66;4882730;29;20287;-59
2022/09/30 08:56:10;;;;;;;8.40;7.70;;;17.60;64.50;;;21.80;44.40;100892.72;4882178;29;20230;-58
2022/09/30 08:58:44;;;;;;;8.67;7.90;;;17.70;65.10;;;22.39;42.49;100889.31;4882678;29;20200;-60
2022/09/30 09:01:22;;;;;;;8.27;7.50;;;17.90;62.70;;;22.98;41.13;100887.63;4880883;29;20197;-60
2022/09/30 09:03:50;;;;;;;8.00;7.20;;;18.20;61.80;;;23.90;40.36;100888.22;4882764;29;20215;-59
2022/09/30 09:06:32;;;;;;;9.23;8.40;;;18.60;62.30;;;25.13;38.29;100893.94;4896613;29;20219;-60
2022/09/30 09:09:17;;;;;;;7.30;6.60;;;19.00;61.00;;;26.19;37.06;100897.50;4900497;29;20198;-59
2022/09/30 09:12:01;;;;;;;8.23;6.80;;;19.60;61.00;;;27.02;34.75;100897.72;4900309;29;20276;-60
2022/09/30 09:14:41;;;;;;;8.57;7.87;;;20.40;58.10;;;27.57;33.54;100886.53;4901028;29;20191;-60
2022/09/30 09:17:30;;;;;;;6.87;6.17;;;21.20;56.20;;;28.07;32.53;100886.09;4900308;29;20285;-59
2022/09/30 09:20:09;;;;;;;7.23;6.53;;;21.90;54.30;;;28.31;31.69;100891.53;4900689;29;20591;-59
2022/09/30 09:22:38;;;;;;;7.13;6.43;;;22.50;51.20;;;28.54;31.18;100890.69;4900141;29;20255;-57
2022/09/30 09:25:11;;;;;;;6.57;5.97;;;23.00;49.70;;;29.07;31.63;100891.38;4903639;29;20605;-59
2022/09/30 09:27:50;;;;;;;5.87;5.43;;;23.60;50.20;;;29.77;30.95;100891.38;4900837;29;20195;-59
2022/09/30 09:30:20;;;;;;;6.53;5.90;;;24.20;49.10;;;30.60;29.71;100900.13;4902617;29;20195;-59
2022/09/30 09:32:54;;;;;;;6.30;4.97;;;24.70;48.90;;;31.36;28.99;100899.25;4901571;29;20550;-57
2022/09/30 09:35:41;;;;;;;7.30;6.40;;;25.40;47.30;;;31.74;26.96;100886.09;4902581;29;20226;-57
2022/09/30 09:38:25;;;;;;;5.93;5.30;;;25.90;43.40;;;32.41;27.12;100892.19;4902380;29;20668;-63
2022/09/30 09:41:18;;;;;;;5.70;5.20;;;26.50;44.50;;;33.06;25.91;100889.47;4934559;29;20212;-60
2022/09/30 09:43:59;;;;;;;5.75;5.35;;;27.00;42.50;;;33.54;25.23;100888.50;4920525;29;20274;-58
2022/09/30 09:46:33;;;;;;;6.43;5.90;;;27.40;40.80;;;33.59;24.33;100896.53;4916652;29;20301;-58
2022/09/30 09:49:34;;;;;;;5.97;5.47;;;27.70;38.30;;;33.56;23.91;100894.44;4899869;29;20205;-60
2022/09/30 09:52:48;;;;;;;5.82;5.05;;;27.90;37.20;;;33.62;23.58;100895.84;4899056;29;20245;-59
2022/09/30 09:55:21;;;;;;;5.67;5.10;;;28.10;36.90;;;33.86;23.19;100901.59;4899778;29;20203;-61
2022/09/30 09:58:06;;;;;;;5.83;5.10;;;28.30;36.30;;;33.41;23.29;100892.97;4881612;29;20561;-58
2022/09/30 10:03:20;;;;;;;6.10;5.60;;;28.00;35.10;;;32.37;24.50;100893.13;4881113;29;20777;-60
2022/09/30 10:06:03;;;;;;;4.83;4.40;;;27.70;35.00;;;31.88;23.86;100892.25;4880747;29;20283;-59
2022/09/30 10:08:33;;;;;;;4.70;4.30;;;27.40;35.20;;;31.87;24.37;100890.66;4880585;29;20200;-60
2022/09/30 10:11:05;;;;;;;4.33;4.03;;;27.20;35.50;;;32.27;24.42;100887.97;4895046;29;20650;-60
2022/09/30 10:13:42;;;;;;;4.30;4.00;;;27.30;36.50;;;33.24;23.84;100885.59;4880902;29;20311;-59
2022/09/30 10:16:29;;;;;;;6.63;5.03;;;27.40;37.40;;;33.94;22.70;100889.84;4897632;29;20180;-61
2022/09/30 10:18:58;;;;;;;4.87;4.50;;;27.50;35.90;;;33.72;23.39;100896.31;4899457;29;20231;-59
2022/09/30 10:21:28;;;;;;;5.13;4.73;;;27.80;36.60;;;32.47;23.15;100890.13;4898938;29;20199;-60
2022/09/30 10:23:56;;;;;;;4.77;4.20;;;27.50;33.80;;;31.54;24.93;100902.13;4899312;29;20211;-59
2022/09/30 10:26:27;;;;;;;5.47;4.97;;;27.40;35.20;;;30.32;25.26;100906.66;4898369;29;20530;-59
2022/09/30 10:28:58;;;;;;;4.93;4.27;;;26.80;34.60;;;28.96;26.79;100902.63;4899598;29;20192;-60
2022/09/30 10:31:29;;;;;;;4.47;4.00;;;26.10;35.00;;;27.88;27.97;100906.84;4899452;29;20195;-59
2022/09/30 10:34:03;;;;;;;6.27;4.70;;;25.60;36.30;;;27.05;29.57;100908.78;4917624;29;20294;-61
2022/09/30 10:36:33;;;;;;;5.57;5.07;;;24.90;38.60;;;26.45;30.27;100901.75;4898381;29;20616;-61
2022/09/30 10:39:06;;;;;;;5.40;4.90;;;24.20;39.20;;;25.96;31.35;100904.25;4901595;29;20226;-60
2022/09/30 10:41:37;;;;;;;4.70;4.40;;;23.60;39.80;;;25.49;31.42;100899.13;4917096;29;20238;-59
2022/09/30 10:44:14;;;;;;;4.70;4.30;;;23.10;41.10;;;25.05;32.35;100902.56;4905541;29;20638;-61
2022/09/30 10:46:44;;;;;;;6.47;4.83;;;22.60;42.00;;;24.73;33.14;100906.19;4898810;29;20203;-61